John James Audubon — WDE8037 — position and weather

sailwx.info

Track history (hours):
 
Tides and Currents Weather Stations Pressure Air Temp Water Temp Dewpoint Dewpoint Depression Visibility Wind Speed Wind Dir Waves Ship Positions

John James Audubon

Owner: Statue Cruises, Jersey City, NJ. More information available from US FCC via Universal Licensing System and Coast Guard Vessel Documentation Center.

Last reported at 2015-Jan-29 23:29 UTC. Time now 2015-Jan-30 06:26 UTC.
Position N 40°44' W 074°01'.

Length 37 m.

Type: Ship. MMSI: 367400770.

Date/timePositionNaut miles runAvg speedWind from/ knotsBaromVisibWave heightAir tempDewpointWater temp
2015-Jan-29 23:29N 40°44' W 074°01'2 1.9
2015-Jan-29 22:33N 40°43' W 074°02'1 1.5
2015-Jan-29 21:33N 40°41' W 074°03'2 2.1
2015-Jan-29 20:33N 40°42' W 074°00'0 0.0
2015-Jan-29 19:33N 40°42' W 074°00'2 1.6
2015-Jan-29 18:33N 40°41' W 074°02'2 1.6
2015-Jan-29 17:33N 40°42' W 074°00'0 0.0
2015-Jan-29 16:33N 40°42' W 074°00'2 1.9
2015-Jan-29 15:33N 40°41' W 074°02'2 1.9
2015-Jan-29 14:33N 40°42' W 074°00'1 0.1
2015-Jan-28 23:07N 40°43' W 074°02'1 1.2
2015-Jan-28 22:33N 40°43' W 074°02'1 1.3
2015-Jan-28 21:33N 40°41' W 074°02'2 2.0
2015-Jan-28 20:33N 40°42' W 074°00'0 0.0
2015-Jan-28 19:33N 40°42' W 074°00'2 2.0
2015-Jan-28 18:33N 40°41' W 074°03'2 2.0
2015-Jan-28 17:33N 40°42' W 074°00'0 0.0
2015-Jan-28 16:33N 40°42' W 074°00'1 1.2
2015-Jan-28 15:33N 40°42' W 074°02'1 1.2
2015-Jan-28 14:33N 40°42' W 074°00'2 0.0
2015-Jan-26 19:34N 40°44' W 074°01'3 3.0
2015-Jan-26 18:34N 40°41' W 074°03'2 2.1
2015-Jan-26 17:33N 40°42' W 074°00'0 0.0
2015-Jan-26 16:34N 40°42' W 074°00'2 2.0
2015-Jan-26 15:34N 40°41' W 074°03'2 2.0
2015-Jan-26 14:34N 40°42' W 074°00'2 1.6
2015-Jan-26 13:34N 40°44' W 074°01'0 0.0
2015-Jan-26 00:16N 40°44' W 074°01'0 0.0
2015-Jan-25 23:33N 40°44' W 074°01'0 0.0
2015-Jan-25 22:33N 40°44' W 074°01'3 2.8
2015-Jan-25 21:33N 40°41' W 074°02'2 1.8
2015-Jan-25 20:33N 40°42' W 074°00'0 0.0
2015-Jan-25 19:33N 40°42' W 074°00'2 2.0
2015-Jan-25 18:33N 40°41' W 074°02'2 2.0
2015-Jan-25 17:33N 40°42' W 074°00'0 0.0
2015-Jan-25 16:33N 40°42' W 074°00'1 1.5
2015-Jan-25 15:33N 40°42' W 074°02'1 1.5
2015-Jan-25 14:33N 40°42' W 074°00'2 1.6
2015-Jan-25 13:34N 40°44' W 074°01'0 0.0
2015-Jan-25 12:33N 40°44' W 074°01'0 0.0
2015-Jan-25 11:33N 40°44' W 074°01'0 0.0
2015-Jan-25 10:34N 40°44' W 074°01'0 0.0
2015-Jan-25 09:34N 40°44' W 074°01'0 0.3
2015-Jan-25 08:34N 40°44' W 074°01'1 1.5
2015-Jan-25 07:34N 40°43' W 074°02'2 1.8
2015-Jan-25 06:33N 40°44' W 074°01'0 0.4
2015-Jan-25 05:33N 40°44' W 074°01'2 1.6
2015-Jan-25 04:33N 40°42' W 073°59'1 1.5
2015-Jan-25 03:33N 40°42' W 074°01'0 0.3
2015-Jan-25 02:33N 40°42' W 074°01'1 0.7
2015-Jan-25 01:33N 40°42' W 074°00'1 1.5
2015-Jan-25 00:33N 40°44' W 074°01'0 0.3
2015-Jan-24 23:33N 40°44' W 074°01'0 0.0
2015-Jan-24 22:33N 40°44' W 074°01'2 2.2
2015-Jan-24 21:33N 40°42' W 074°01'1 1.1
2015-Jan-24 20:33N 40°42' W 074°00'0 0.0
2015-Jan-24 19:33N 40°42' W 074°00'2 1.9
2015-Jan-24 18:33N 40°41' W 074°02'2 1.9
2015-Jan-24 17:33N 40°42' W 074°00'0 0.0
2015-Jan-24 16:33N 40°42' W 074°00'2 1.6
2015-Jan-24 15:33N 40°42' W 074°02'1 0.9
2015-Jan-24 14:33N 40°42' W 074°01'2 0.1
2015-Jan-23 22:33N 40°44' W 074°01'3 2.6
2015-Jan-23 21:33N 40°41' W 074°02'1 1.5
2015-Jan-23 20:33N 40°42' W 074°00'0 0.0
2015-Jan-23 19:33N 40°42' W 074°00'2 1.6
2015-Jan-23 18:33N 40°41' W 074°02'2 1.6
2015-Jan-23 17:33N 40°42' W 074°00'0 0.0
2015-Jan-23 16:33N 40°42' W 074°00'2 2.1
2015-Jan-23 15:33N 40°41' W 074°03'1 1.4
2015-Jan-23 14:33N 40°42' W 074°01'1 1.0
2015-Jan-23 13:33N 40°43' W 074°02'1 0.1
2015-Jan-22 22:27N 40°44' W 074°01'3 2.9
2015-Jan-22 21:33N 40°41' W 074°02'2 1.6
2015-Jan-22 20:33N 40°42' W 074°00'0 0.0
2015-Jan-22 19:33N 40°42' W 074°00'1 1.4
2015-Jan-22 18:33N 40°41' W 074°02'1 1.4
2015-Jan-22 17:33N 40°42' W 074°00'0 0.0
2015-Jan-22 16:33N 40°42' W 074°00'1 1.4
2015-Jan-22 15:33N 40°42' W 074°02'1 1.4
2015-Jan-22 14:33N 40°42' W 074°00'2 1.6
2015-Jan-22 13:33N 40°44' W 074°01'0 0.0
2015-Jan-21 22:42N 40°44' W 074°01'1 8.9
2015-Jan-21 22:33N 40°42' W 074°01'1 1.4
2015-Jan-21 21:33N 40°41' W 074°02'2 1.7
2015-Jan-21 20:34N 40°42' W 074°00'0 0.0
2015-Jan-21 19:33N 40°42' W 074°00'2 2.1
2015-Jan-21 18:33N 40°41' W 074°03'2 2.1
2015-Jan-21 17:33N 40°42' W 074°00'0 0.0
2015-Jan-21 16:34N 40°42' W 074°00'1 0.6
2015-Jan-21 15:33N 40°42' W 074°01'1 1.4
2015-Jan-21 14:33N 40°43' W 074°02'2 1.8
2015-Jan-21 13:33N 40°44' W 074°01'0 0.0
2015-Jan-20 23:10N 40°44' W 074°01'2 3.0
2015-Jan-20 22:33N 40°42' W 074°01'1 1.2
2015-Jan-20 21:33N 40°41' W 074°02'2 1.9
2015-Jan-20 20:33N 40°42' W 074°00'0 0.0
2015-Jan-20 19:33N 40°42' W 074°00'2 2.0
2015-Jan-20 18:33N 40°41' W 074°03'2 2.0
2015-Jan-20 17:33N 40°42' W 074°00'0 0.0
2015-Jan-20 16:34N 40°42' W 074°00'2 2.1
2015-Jan-20 15:34N 40°41' W 074°03'2 1.8
2015-Jan-20 14:34N 40°42' W 074°00'  
Track history (hours):
 
Tides and Currents Weather Stations Pressure Air Temp Water Temp Dewpoint Dewpoint Depression Visibility Wind Speed Wind Dir Waves Ship Positions

John James Audubon

Owner: Statue Cruises, Jersey City, NJ. More information available from US FCC via Universal Licensing System and Coast Guard Vessel Documentation Center.

Last reported at 2015-Jan-29 23:29 UTC. Time now 2015-Jan-30 06:26 UTC.
Position N 40°44' W 074°01'.

Length 37 m.

Type: Ship. MMSI: 367400770.

Date/timePositionNaut miles runAvg speedWind from/ knotsBaromVisibWave heightAir tempDewpointWater temp
2015-Jan-29 23:29N 40°44' W 074°01'2 1.9
2015-Jan-29 22:33N 40°43' W 074°02'1 1.5
2015-Jan-29 21:33N 40°41' W 074°03'2 2.1
2015-Jan-29 20:33N 40°42' W 074°00'0 0.0
2015-Jan-29 19:33N 40°42' W 074°00'2 1.6
2015-Jan-29 18:33N 40°41' W 074°02'2 1.6
2015-Jan-29 17:33N 40°42' W 074°00'0 0.0
2015-Jan-29 16:33N 40°42' W 074°00'2 1.9
2015-Jan-29 15:33N 40°41' W 074°02'2 1.9
2015-Jan-29 14:33N 40°42' W 074°00'1 0.1
2015-Jan-28 23:07N 40°43' W 074°02'1 1.2
2015-Jan-28 22:33N 40°43' W 074°02'1 1.3
2015-Jan-28 21:33N 40°41' W 074°02'2 2.0
2015-Jan-28 20:33N 40°42' W 074°00'0 0.0
2015-Jan-28 19:33N 40°42' W 074°00'2 2.0
2015-Jan-28 18:33N 40°41' W 074°03'2 2.0
2015-Jan-28 17:33N 40°42' W 074°00'0 0.0
2015-Jan-28 16:33N 40°42' W 074°00'1 1.2
2015-Jan-28 15:33N 40°42' W 074°02'1 1.2
2015-Jan-28 14:33N 40°42' W 074°00'2 0.0
2015-Jan-26 19:34N 40°44' W 074°01'3 3.0
2015-Jan-26 18:34N 40°41' W 074°03'2 2.1
2015-Jan-26 17:33N 40°42' W 074°00'0 0.0
2015-Jan-26 16:34N 40°42' W 074°00'2 2.0
2015-Jan-26 15:34N 40°41' W 074°03'2 2.0
2015-Jan-26 14:34N 40°42' W 074°00'2 1.6
2015-Jan-26 13:34N 40°44' W 074°01'0 0.0
2015-Jan-26 00:16N 40°44' W 074°01'0 0.0
2015-Jan-25 23:33N 40°44' W 074°01'0 0.0
2015-Jan-25 22:33N 40°44' W 074°01'3 2.8
2015-Jan-25 21:33N 40°41' W 074°02'2 1.8
2015-Jan-25 20:33N 40°42' W 074°00'0 0.0
2015-Jan-25 19:33N 40°42' W 074°00'2 2.0
2015-Jan-25 18:33N 40°41' W 074°02'2 2.0
2015-Jan-25 17:33N 40°42' W 074°00'0 0.0
2015-Jan-25 16:33N 40°42' W 074°00'1 1.5
2015-Jan-25 15:33N 40°42' W 074°02'1 1.5
2015-Jan-25 14:33N 40°42' W 074°00'2 1.6
2015-Jan-25 13:34N 40°44' W 074°01'0 0.0
2015-Jan-25 12:33N 40°44' W 074°01'0 0.0
2015-Jan-25 11:33N 40°44' W 074°01'0 0.0
2015-Jan-25 10:34N 40°44' W 074°01'0 0.0
2015-Jan-25 09:34N 40°44' W 074°01'0 0.3
2015-Jan-25 08:34N 40°44' W 074°01'1 1.5
2015-Jan-25 07:34N 40°43' W 074°02'2 1.8
2015-Jan-25 06:33N 40°44' W 074°01'0 0.4
2015-Jan-25 05:33N 40°44' W 074°01'2 1.6
2015-Jan-25 04:33N 40°42' W 073°59'1 1.5
2015-Jan-25 03:33N 40°42' W 074°01'0 0.3
2015-Jan-25 02:33N 40°42' W 074°01'1 0.7
2015-Jan-25 01:33N 40°42' W 074°00'1 1.5
2015-Jan-25 00:33N 40°44' W 074°01'0 0.3
2015-Jan-24 23:33N 40°44' W 074°01'0 0.0
2015-Jan-24 22:33N 40°44' W 074°01'2 2.2
2015-Jan-24 21:33N 40°42' W 074°01'1 1.1
2015-Jan-24 20:33N 40°42' W 074°00'0 0.0
2015-Jan-24 19:33N 40°42' W 074°00'2 1.9
2015-Jan-24 18:33N 40°41' W 074°02'2 1.9
2015-Jan-24 17:33N 40°42' W 074°00'0 0.0
2015-Jan-24 16:33N 40°42' W 074°00'2 1.6
2015-Jan-24 15:33N 40°42' W 074°02'1 0.9
2015-Jan-24 14:33N 40°42' W 074°01'2 0.1
2015-Jan-23 22:33N 40°44' W 074°01'3 2.6
2015-Jan-23 21:33N 40°41' W 074°02'1 1.5
2015-Jan-23 20:33N 40°42' W 074°00'0 0.0
2015-Jan-23 19:33N 40°42' W 074°00'2 1.6
2015-Jan-23 18:33N 40°41' W 074°02'2 1.6
2015-Jan-23 17:33N 40°42' W 074°00'0 0.0
2015-Jan-23 16:33N 40°42' W 074°00'2 2.1
2015-Jan-23 15:33N 40°41' W 074°03'1 1.4
2015-Jan-23 14:33N 40°42' W 074°01'1 1.0
2015-Jan-23 13:33N 40°43' W 074°02'1 0.1
2015-Jan-22 22:27N 40°44' W 074°01'3 2.9
2015-Jan-22 21:33N 40°41' W 074°02'2 1.6
2015-Jan-22 20:33N 40°42' W 074°00'0 0.0
2015-Jan-22 19:33N 40°42' W 074°00'1 1.4
2015-Jan-22 18:33N 40°41' W 074°02'1 1.4
2015-Jan-22 17:33N 40°42' W 074°00'0 0.0
2015-Jan-22 16:33N 40°42' W 074°00'1 1.4
2015-Jan-22 15:33N 40°42' W 074°02'1 1.4
2015-Jan-22 14:33N 40°42' W 074°00'2 1.6
2015-Jan-22 13:33N 40°44' W 074°01'0 0.0
2015-Jan-21 22:42N 40°44' W 074°01'1 8.9
2015-Jan-21 22:33N 40°42' W 074°01'1 1.4
2015-Jan-21 21:33N 40°41' W 074°02'2 1.7
2015-Jan-21 20:34N 40°42' W 074°00'0 0.0
2015-Jan-21 19:33N 40°42' W 074°00'2 2.1
2015-Jan-21 18:33N 40°41' W 074°03'2 2.1
2015-Jan-21 17:33N 40°42' W 074°00'0 0.0
2015-Jan-21 16:34N 40°42' W 074°00'1 0.6
2015-Jan-21 15:33N 40°42' W 074°01'1 1.4
2015-Jan-21 14:33N 40°43' W 074°02'2 1.8
2015-Jan-21 13:33N 40°44' W 074°01'0 0.0
2015-Jan-20 23:10N 40°44' W 074°01'2 3.0
2015-Jan-20 22:33N 40°42' W 074°01'1 1.2
2015-Jan-20 21:33N 40°41' W 074°02'2 1.9
2015-Jan-20 20:33N 40°42' W 074°00'0 0.0
2015-Jan-20 19:33N 40°42' W 074°00'2 2.0
2015-Jan-20 18:33N 40°41' W 074°03'2 2.0
2015-Jan-20 17:33N 40°42' W 074°00'0 0.0
2015-Jan-20 16:34N 40°42' W 074°00'2 2.1
2015-Jan-20 15:34N 40°41' W 074°03'2 1.8
2015-Jan-20 14:34N 40°42' W 074°00'  

Dump ship's entire track history